Aeroporto :
LOGIN :

Iscrizione | Disclaimer

   EN    FR    IT 

 










Sommario :    VFR   VFR Marginale   IFR   IFR Intensivo   IFR Molto Intensivo
Visibilità : 
Base nubi : 
>= 8 km
>= 3000ft
5 / 8 km
1000 / 3000 ft
1500m / 5 km
500 / 1000 ft
800 / 1500m
200 / 500 ft
< 800m
< 200 ft
Simboli :   Temporali  Nebbia  Neve Forte  Precipitazioni Forti  Vento > 20 kt
SIGMETs :   Varie  Temporali  Ghiacco  Turbolenza  Onda orograficha  Ceneri Vulcaniche






- Altitudine del aeroporto : 3 ft
- Codice IATA : LWR


EHLW - Leuuwarden Air Base

ULTIMO METAR :
  • 251603Z AUTO 27012KT 230V300 9999 FEW016 SCT023 05/03 Q0994 WHT

METARs OBSOLETI :
  • 251556Z AUTO 27013KT 230V290 9999 FEW018 05/03 Q0994 BLU
  • 251541Z AUTO 27013KT 9999 FEW015CB BKN024 BKN110 05/03 Q0994 WHT
  • 251532Z AUTO 26017KT 9999 -RA FEW015CB SCT026 BKN039 05/03 Q0994 BLU
  • 251455Z AUTO 25016KT 210V270 9999 FEW015CB SCT044 BKN053 05/03 Q0994 BLU 25022KT 9999 SCT025 BKN035 TEMPO 25028G39KT 4500 SHRA FEW015 SCT018CB BKN022
  • 251445Z AUTO 24018KT 9999 FEW015CB SCT027 BKN032 05/03 Q0994 BLU 25022KT 9999 SCT025 BKN035 TEMPO 25028G39KT 4500 SHRA FEW015 SCT018CB BKN022
  • 251437Z AUTO 26020KT 230V290 9000 -RA FEW014 FEW015CB SCT017 BKN026 04/02 Q0994 WHT 25022KT 9999 SCT025 BKN035 TEMPO 25028G39KT 4500 SHRA FEW015 SCT018CB BKN022
  • 251433Z AUTO 27019G29KT 240V310 4700 -RA FEW015CB SCT020 BKN026 04/02 Q0994 GRN 25022KT 9999 SCT025 BKN035 TEMPO 25028G39KT 4500 SHRA FEW015 SCT018CB BKN022
  • 251425Z AUTO 27016KT 240V310 9999 -RA FEW015CB BKN021 OVC033 05/03 Q0994 RERA REDZ WHT 25022KT 9999 SCT025 BKN035 TEMPO 25028G39KT 4500 SHRA FEW015 SCT018CB BKN022
  • 251410Z AUTO 27016G26KT 230V290 9999 -RADZ FEW011 FEW015CB SCT026 BKN031 04/02 Q0994 BLU 25022KT 9999 SCT025 BKN035 TEMPO 25028G39KT 4500 SHRA FEW015 SCT018CB BKN022
  • 251359Z AUTO 25018G28KT 220V280 4300 -RA FEW015CB SCT016 BKN025 05/02 Q0995 GRN 25022KT 9999 SCT025 BKN035 TEMPO 25028G39KT 4500 SHRA FEW015 SCT018CB BKN022
  • 251331Z AUTO 26021G33KT 230V300 9999 -DZ FEW022 BKN025 BKN032 06/02 Q0995 BLU 25022KT 9999 SCT025 BKN035 TEMPO 25028G39KT 4500 SHRA FEW015 SCT018CB BKN022
  • 251325Z AUTO 27018KT 9999 -RA FEW002 SCT022 BKN025 06/03 Q0995 RERA REDZ WHT 25022KT 9999 SCT025 BKN035 TEMPO 25028G39KT 4500 SHRA FEW015 SCT018CB BKN022
  • 251319Z AUTO 26020G30KT 9000 DZRA FEW002 SCT021 BKN025 05/02 Q0995 WHT 25022KT 9999 SCT025 BKN035 TEMPO 25028G39KT 4500 SHRA FEW015 SCT018CB BKN022

TAF TAF EHLW
Valido dal 25 a 14 ore il 26 a 02 ore UTC


251327Z 2514/2602 26020G30KT 9999 SCT022
TEMPO 2514/2602 4500 SHRA FEW010 SCT018CB BKN022
PROB40
TEMPO 2514/2520 3000 TSRAGS SCT007 SCT018CB BKN020
BECMG 2516/2519 25009KT
TEMPO 2518/2602 27010G22KT
PROB40
TEMPO 2520/2602 2000 TSRAGS TSRASN SCT004 SCT018CB BKN020



MetMap, La meteo Aeronautica in un colpo d'occhio ! - Copyright ORBIFLY Dicembre 2007 - Disclaimer

ORBIFLY MET'MAP TEAM :

Programmazione e sviluppo : Alexandra Zaïnal
Concezione : Baudouin d'Aumeries
Aiuto per la programmazione : Marc-Olivier Méhu
Supporto tecnico e logistico : Manuel Goepfert
Aiuto per la traduzione : Arnaldo La Scala

Contatto : metmap@orbifly.com




FONTI E CREDITI :

   NOAA